Time;durP1;ratioP1;P1;durP2;ratioP2;P2;SDS_P1;SDS_P2;PMS_P1;PMS_P2;Temp;Humidity;BMP_temperature;BMP_pressure;BME280_temperature;BME280_humidity;BME280_pressure;Samples;Min_cycle;Max_cycle;Signal;HPM_P1;HPM_P2
2023/08/21 00:01:23;;;;;;;7.75;4.72;;;;;;;;;;5074569;28;20051;-79
2023/08/21 00:03:49;;;;;;;8.05;4.38;;;;;;;;;;5069607;28;20137;-79
2023/08/21 00:06:15;;;;;;;6.78;5.05;;;;;;;;;;5076890;28;20400;-79
2023/08/21 00:08:41;;;;;;;8.18;5.07;;;;;;;;;;5093497;28;20052;-79
2023/08/21 00:11:07;;;;;;;6.72;5.20;;;;;;;;;;5088236;28;20040;-78
2023/08/21 00:13:33;;;;;;;8.40;5.10;;;;;;;;;;5074061;28;20056;-79
2023/08/21 00:15:59;;;;;;;7.20;4.47;;;;;;;;;;5096489;28;20074;-79
2023/08/21 00:18:25;;;;;;;9.48;4.60;;;;;;;;;;5074813;28;20052;-79
2023/08/21 00:20:51;;;;;;;7.18;4.57;;;;;;;;;;5097119;28;20069;-79
2023/08/21 00:23:17;;;;;;;6.68;4.30;;;;;;;;;;5091819;28;20058;-79
2023/08/21 00:25:46;;;;;;;8.07;4.80;;;;;;;;;;5093069;28;20060;-79
2023/08/21 00:28:12;;;;;;;9.07;4.80;;;;;;;;;;5065695;28;20061;-79
2023/08/21 00:30:39;;;;;;;7.97;4.85;;;;;;;;;;5087188;28;20365;-79
2023/08/21 00:33:05;;;;;;;9.60;5.13;;;;;;;;;;5074479;28;20047;-79
2023/08/21 00:35:31;;;;;;;9.05;5.28;;;;;;;;;;5092266;28;20092;-79
2023/08/21 00:37:57;;;;;;;7.32;4.95;;;;;;;;;;5093244;28;20104;-79
2023/08/21 00:40:23;;;;;;;9.27;5.30;;;;;;;;;;5073795;28;20048;-78
2023/08/21 00:42:49;;;;;;;8.40;5.15;;;;;;;;;;5075049;28;20044;-79
2023/08/21 00:45:15;;;;;;;8.30;5.50;;;;;;;;;;5070354;28;20396;-79
2023/08/21 00:47:41;;;;;;;8.43;5.43;;;;;;;;;;5090901;28;20032;-79
2023/08/21 00:50:08;;;;;;;8.52;5.05;;;;;;;;;;5097136;28;20040;-79
2023/08/21 00:52:38;;;;;;;10.68;5.45;;;;;;;;;;5090720;28;20048;-79
2023/08/21 00:55:05;;;;;;;9.90;5.22;;;;;;;;;;5073040;28;20082;-80
2023/08/21 00:57:32;;;;;;;9.00;5.45;;;;;;;;;;5091080;28;20047;-79
2023/08/21 01:00:00;;;;;;;7.38;5.35;;;;;;;;;;5073728;28;20036;-77
2023/08/21 01:02:27;;;;;;;8.30;5.40;;;;;;;;;;5070533;28;20071;-76
2023/08/21 01:04:53;;;;;;;8.57;4.78;;;;;;;;;;5071785;28;20403;-77
2023/08/21 01:07:19;;;;;;;7.95;4.70;;;;;;;;;;5089949;28;20056;-77
2023/08/21 01:09:58;;;;;;;9.02;5.40;;;;;;;;;;5091589;28;20040;-77
2023/08/21 01:12:27;;;;;;;9.38;4.75;;;;;;;;;;5086419;28;20086;-76
2023/08/21 01:14:59;;;;;;;7.15;4.15;;;;;;;;;;5090791;28;20418;-77
2023/08/21 01:17:26;;;;;;;7.68;4.63;;;;;;;;;;5079416;28;20055;-77
2023/08/21 01:19:53;;;;;;;6.75;4.50;;;;;;;;;;5089708;28;20039;-77
2023/08/21 01:22:19;;;;;;;8.38;5.18;;;;;;;;;;5064150;28;20098;-77
2023/08/21 01:24:45;;;;;;;7.32;4.97;;;;;;;;;;5090054;28;20487;-77
2023/08/21 01:27:13;;;;;;;10.02;5.43;;;;;;;;;;5073618;28;20060;-77
2023/08/21 01:29:39;;;;;;;9.05;5.32;;;;;;;;;;5089957;28;20032;-78
2023/08/21 01:32:05;;;;;;;8.40;5.03;;;;;;;;;;5092754;28;20070;-77
2023/08/21 01:34:33;;;;;;;8.82;4.95;;;;;;;;;;5072124;28;20105;-77
2023/08/21 01:36:59;;;;;;;8.73;5.38;;;;;;;;;;5071701;28;20052;-80
2023/08/21 01:39:26;;;;;;;7.80;4.90;;;;;;;;;;5089446;28;20047;-79
2023/08/21 01:41:52;;;;;;;8.15;5.32;;;;;;;;;;5090818;28;20499;-80
2023/08/21 01:44:18;;;;;;;7.68;4.90;;;;;;;;;;5084649;28;20048;-79
2023/08/21 01:46:44;;;;;;;9.52;5.25;;;;;;;;;;5074621;28;20036;-80
2023/08/21 01:49:10;;;;;;;9.15;4.97;;;;;;;;;;5087907;28;20074;-80
2023/08/21 01:51:36;;;;;;;6.95;5.00;;;;;;;;;;5092198;28;20551;-79
2023/08/21 01:54:02;;;;;;;9.63;5.43;;;;;;;;;;5072010;28;20092;-79
2023/08/21 01:56:28;;;;;;;9.05;5.45;;;;;;;;;;5071243;28;20044;-80
2023/08/21 01:58:54;;;;;;;8.10;5.40;;;;;;;;;;5090356;28;20040;-80
2023/08/21 02:01:20;;;;;;;10.30;5.30;;;;;;;;;;5067999;28;20040;-79
2023/08/21 02:03:46;;;;;;;9.10;5.40;;;;;;;;;;5064393;28;20086;-79
2023/08/21 02:06:12;;;;;;;8.27;4.75;;;;;;;;;;5090233;28;20569;-79
2023/08/21 02:08:38;;;;;;;7.93;5.43;;;;;;;;;;5089371;28;20081;-80
2023/08/21 02:11:04;;;;;;;10.73;5.78;;;;;;;;;;5092059;28;20040;-79
2023/08/21 02:13:32;;;;;;;9.73;5.40;;;;;;;;;;5072323;28;20108;-79
2023/08/21 02:15:58;;;;;;;8.13;5.40;;;;;;;;;;5088710;28;20036;-80
2023/08/21 02:18:24;;;;;;;8.57;5.70;;;;;;;;;;5070160;28;20063;-79
2023/08/21 02:20:51;;;;;;;9.73;5.38;;;;;;;;;;5071394;28;20471;-80
2023/08/21 02:23:17;;;;;;;9.90;5.65;;;;;;;;;;5091634;28;20036;-79
2023/08/21 02:25:43;;;;;;;8.45;5.63;;;;;;;;;;5069381;28;20476;-80
2023/08/21 02:28:09;;;;;;;10.38;5.53;;;;;;;;;;5090594;28;20044;-79
2023/08/21 02:30:35;;;;;;;6.43;5.20;;;;;;;;;;5089889;28;20040;-80
2023/08/21 02:33:01;;;;;;;8.48;5.35;;;;;;;;;;5090280;28;20446;-80
2023/08/21 02:35:27;;;;;;;11.15;5.72;;;;;;;;;;5071940;28;20185;-77
2023/08/21 02:37:53;;;;;;;8.35;5.47;;;;;;;;;;5083911;28;20059;-77
2023/08/21 02:40:19;;;;;;;8.60;5.60;;;;;;;;;;5091085;28;20040;-77
2023/08/21 02:42:45;;;;;;;10.88;5.60;;;;;;;;;;5090077;28;20040;-77
2023/08/21 02:45:11;;;;;;;11.20;5.32;;;;;;;;;;5087718;28;20050;-77
2023/08/21 02:47:41;;;;;;;9.32;5.63;;;;;;;;;;5071502;28;20047;-78
2023/08/21 02:50:07;;;;;;;6.85;5.53;;;;;;;;;;5064242;28;20048;-77
2023/08/21 02:52:34;;;;;;;9.93;5.97;;;;;;;;;;5084505;28;20131;-77
2023/08/21 02:55:00;;;;;;;10.27;5.78;;;;;;;;;;5068440;28;20044;-77
2023/08/21 02:57:27;;;;;;;7.63;5.50;;;;;;;;;;5072564;28;20044;-77
2023/08/21 02:59:53;;;;;;;9.60;5.43;;;;;;;;;;5076182;28;20130;-77
2023/08/21 03:02:19;;;;;;;8.73;5.50;;;;;;;;;;5070820;28;20044;-76
2023/08/21 03:04:45;;;;;;;8.75;5.25;;;;;;;;;;5071149;28;20075;-77
2023/08/21 03:07:11;;;;;;;8.10;5.57;;;;;;;;;;5072347;28;20060;-77
2023/08/21 03:09:38;;;;;;;8.85;6.15;;;;;;;;;;5068437;28;20047;-79
2023/08/21 03:12:04;;;;;;;9.90;5.30;;;;;;;;;;5069334;28;20092;-80
2023/08/21 03:14:30;;;;;;;8.77;6.13;;;;;;;;;;5098459;28;20487;-80
2023/08/21 03:16:56;;;;;;;12.95;5.90;;;;;;;;;;5070123;28;20036;-80
2023/08/21 03:19:22;;;;;;;8.27;6.28;;;;;;;;;;5061230;28;20372;-79
2023/08/21 03:21:49;;;;;;;10.40;5.60;;;;;;;;;;5069854;28;20055;-80
2023/08/21 03:24:15;;;;;;;13.95;6.15;;;;;;;;;;5071494;28;20495;-80
2023/08/21 03:26:41;;;;;;;9.55;5.63;;;;;;;;;;5069163;28;20131;-80
2023/08/21 03:29:07;;;;;;;8.68;5.55;;;;;;;;;;5083940;28;20123;-79
2023/08/21 03:31:33;;;;;;;12.95;5.57;;;;;;;;;;5090280;28;20044;-79
2023/08/21 03:33:59;;;;;;;14.25;5.57;;;;;;;;;;5072185;28;20052;-80
2023/08/21 03:36:31;;;;;;;10.68;6.20;;;;;;;;;;5094419;28;20399;-80
2023/08/21 03:39:01;;;;;;;11.90;6.03;;;;;;;;;;5089145;28;20043;-80
2023/08/21 03:41:27;;;;;;;12.75;6.20;;;;;;;;;;5089440;28;20048;-80
2023/08/21 03:43:54;;;;;;;9.60;5.82;;;;;;;;;;5087984;28;20113;-80
2023/08/21 03:46:20;;;;;;;8.13;5.70;;;;;;;;;;5085191;28;20136;-80
2023/08/21 03:48:46;;;;;;;11.70;6.05;;;;;;;;;;5084699;28;20116;-80
2023/08/21 03:51:12;;;;;;;10.10;6.38;;;;;;;;;;5072529;28;20113;-80
2023/08/21 03:53:38;;;;;;;8.63;6.07;;;;;;;;;;5089183;28;20048;-80
2023/08/21 03:56:04;;;;;;;8.30;5.75;;;;;;;;;;5090690;28;20066;-80
2023/08/21 03:58:30;;;;;;;10.07;6.25;;;;;;;;;;5088302;28;20452;-80
2023/08/21 04:00:56;;;;;;;12.55;7.03;;;;;;;;;;5088504;28;20514;-80
2023/08/21 04:03:22;;;;;;;9.95;6.22;;;;;;;;;;5085701;28;20080;-80
2023/08/21 04:05:48;;;;;;;10.75;6.47;;;;;;;;;;5082630;28;20040;-79
2023/08/21 04:08:14;;;;;;;12.75;5.88;;;;;;;;;;5091427;28;20082;-79
2023/08/21 04:10:41;;;;;;;10.05;5.70;;;;;;;;;;5090106;28;20791;-80
2023/08/21 04:13:08;;;;;;;10.95;6.10;;;;;;;;;;5092054;28;20048;-80
2023/08/21 04:15:37;;;;;;;9.70;5.53;;;;;;;;;;5073095;28;20044;-79
2023/08/21 04:18:03;;;;;;;15.18;6.43;;;;;;;;;;5091588;28;20044;-80
2023/08/21 04:20:29;;;;;;;11.65;6.22;;;;;;;;;;5075154;28;20143;-80
2023/08/21 04:22:55;;;;;;;9.10;5.93;;;;;;;;;;5089970;28;20040;-80
2023/08/21 04:25:21;;;;;;;9.13;5.90;;;;;;;;;;5074387;28;20586;-80
2023/08/21 04:27:47;;;;;;;11.40;7.10;;;;;;;;;;5069389;28;20040;-80
2023/08/21 04:30:14;;;;;;;10.50;6.50;;;;;;;;;;5093515;28;20502;-80
2023/08/21 04:32:40;;;;;;;11.73;5.97;;;;;;;;;;5092508;28;20040;-80
2023/08/21 04:35:08;;;;;;;13.75;6.95;;;;;;;;;;5092480;28;20044;-80
2023/08/21 04:37:34;;;;;;;11.07;6.82;;;;;;;;;;5091327;28;20085;-80
2023/08/21 04:40:00;;;;;;;12.90;6.75;;;;;;;;;;5093681;28;20044;-82
2023/08/21 04:42:27;;;;;;;12.23;6.97;;;;;;;;;;5092686;28;20048;-80
2023/08/21 04:44:53;;;;;;;11.20;6.80;;;;;;;;;;5072994;28;20630;-80
2023/08/21 04:47:20;;;;;;;12.32;7.07;;;;;;;;;;5093842;28;20181;-80
2023/08/21 04:49:46;;;;;;;10.70;7.13;;;;;;;;;;5094340;28;20089;-80
2023/08/21 04:52:12;;;;;;;13.88;6.60;;;;;;;;;;5092873;28;20122;-80
2023/08/21 04:54:38;;;;;;;14.90;7.07;;;;;;;;;;5071944;28;20395;-80
2023/08/21 04:57:04;;;;;;;10.38;6.30;;;;;;;;;;5074431;28;20123;-80
2023/08/21 04:59:30;;;;;;;12.27;5.88;;;;;;;;;;5069550;28;20056;-80
2023/08/21 05:01:57;;;;;;;11.93;6.32;;;;;;;;;;5072876;28;20446;-80
2023/08/21 05:04:23;;;;;;;8.02;5.65;;;;;;;;;;5069363;28;20559;-79
2023/08/21 05:06:49;;;;;;;11.30;6.32;;;;;;;;;;5074639;28;20056;-79
2023/08/21 05:09:15;;;;;;;8.02;5.63;;;;;;;;;;5069759;28;20128;-80
2023/08/21 05:11:41;;;;;;;9.48;6.32;;;;;;;;;;5075062;28;20055;-80
2023/08/21 05:14:07;;;;;;;22.27;14.63;;;;;;;;;;5073256;28;20063;-80
2023/08/21 05:16:33;;;;;;;17.92;11.93;;;;;;;;;;5071939;28;20059;-78
2023/08/21 05:18:59;;;;;;;12.02;7.97;;;;;;;;;;5074166;28;20051;-77
2023/08/21 05:21:25;;;;;;;11.20;6.72;;;;;;;;;;5091440;28;20040;-77
2023/08/21 05:23:51;;;;;;;15.05;6.97;;;;;;;;;;5072777;28;20040;-77
2023/08/21 05:26:17;;;;;;;11.75;6.57;;;;;;;;;;5093803;28;20453;-77
2023/08/21 05:28:43;;;;;;;12.23;6.30;;;;;;;;;;5073090;28;20073;-78
2023/08/21 05:31:09;;;;;;;11.02;6.05;;;;;;;;;;5068548;28;20048;-77
2023/08/21 05:33:35;;;;;;;9.77;6.15;;;;;;;;;;5089373;28;20096;-78
2023/08/21 05:36:01;;;;;;;11.10;6.80;;;;;;;;;;5090550;28;20403;-77
2023/08/21 05:38:27;;;;;;;11.95;6.63;;;;;;;;;;5087863;28;20052;-76
2023/08/21 05:40:53;;;;;;;9.95;6.55;;;;;;;;;;5071190;28;20079;-76
2023/08/21 05:43:19;;;;;;;11.23;7.07;;;;;;;;;;5090199;28;21906;-76
2023/08/21 05:45:46;;;;;;;11.05;6.70;;;;;;;;;;5093342;28;20036;-76
2023/08/21 05:48:12;;;;;;;13.18;7.53;;;;;;;;;;5088294;28;20040;-77
2023/08/21 05:50:38;;;;;;;11.77;7.07;;;;;;;;;;5072598;28;20055;-77
2023/08/21 05:53:04;;;;;;;12.23;7.43;;;;;;;;;;5073249;28;20595;-79
2023/08/21 05:55:30;;;;;;;13.07;7.97;;;;;;;;;;5089064;28;20054;-76
2023/08/21 05:57:56;;;;;;;15.77;7.60;;;;;;;;;;5072478;28;20440;-76
2023/08/21 06:00:22;;;;;;;13.05;7.75;;;;;;;;;;5071381;28;20392;-77
2023/08/21 06:02:48;;;;;;;11.40;7.50;;;;;;;;;;5089328;28;20388;-77
2023/08/21 06:05:14;;;;;;;12.07;7.60;;;;;;;;;;5073554;28;20048;-77
2023/08/21 06:07:40;;;;;;;16.42;8.00;;;;;;;;;;5091591;28;20441;-77
2023/08/21 06:10:08;;;;;;;10.95;6.28;;;;;;;;;;5088227;28;20101;-77
2023/08/21 06:12:34;;;;;;;10.32;6.45;;;;;;;;;;5071656;28;20036;-77
2023/08/21 06:15:00;;;;;;;14.73;7.15;;;;;;;;;;5073819;28;20372;-77
2023/08/21 06:17:28;;;;;;;12.63;7.22;;;;;;;;;;5091191;28;20048;-77
2023/08/21 06:19:54;;;;;;;12.93;6.80;;;;;;;;;;5089943;28;20043;-78
2023/08/21 06:22:20;;;;;;;10.65;7.03;;;;;;;;;;5073428;28;20040;-79
2023/08/21 06:24:46;;;;;;;10.73;7.35;;;;;;;;;;5072783;28;20052;-78
2023/08/21 06:27:12;;;;;;;10.90;6.78;;;;;;;;;;5072236;28;20052;-78
2023/08/21 06:29:40;;;;;;;14.95;7.38;;;;;;;;;;5084054;28;20044;-79
2023/08/21 06:32:06;;;;;;;11.88;6.40;;;;;;;;;;5098667;28;20058;-77
2023/08/21 06:34:32;;;;;;;11.77;6.47;;;;;;;;;;5072758;28;20040;-78
2023/08/21 06:36:58;;;;;;;12.30;7.50;;;;;;;;;;5073266;28;20044;-78
2023/08/21 06:39:24;;;;;;;12.55;6.93;;;;;;;;;;5069793;28;20059;-77
2023/08/21 06:41:50;;;;;;;13.52;7.28;;;;;;;;;;5088739;28;20036;-78
2023/08/21 06:44:16;;;;;;;14.10;6.68;;;;;;;;;;5087015;28;20051;-78
2023/08/21 06:46:43;;;;;;;11.25;6.70;;;;;;;;;;5089116;28;20044;-79
2023/08/21 06:49:09;;;;;;;12.75;6.40;;;;;;;;;;5072704;28;20117;-78
2023/08/21 06:51:35;;;;;;;12.02;6.55;;;;;;;;;;5069982;28;20040;-78
2023/08/21 06:54:01;;;;;;;12.32;7.38;;;;;;;;;;5089007;28;20101;-80
2023/08/21 06:56:27;;;;;;;10.10;6.60;;;;;;;;;;5088119;28;20036;-80
2023/08/21 06:58:55;;;;;;;15.05;6.20;;;;;;;;;;5071513;28;20509;-81
2023/08/21 07:01:21;;;;;;;12.38;6.20;;;;;;;;;;5071287;28;20452;-79
2023/08/21 07:03:47;;;;;;;10.90;5.75;;;;;;;;;;5080876;28;20036;-77
2023/08/21 07:06:13;;;;;;;11.80;5.70;;;;;;;;;;5087160;28;20064;-76
2023/08/21 07:08:40;;;;;;;14.75;6.13;;;;;;;;;;5090346;28;20048;-77
2023/08/21 07:11:10;;;;;;;7.85;5.18;;;;;;;;;;5089441;28;20052;-77
2023/08/21 07:13:36;;;;;;;11.23;5.30;;;;;;;;;;5087764;28;20487;-78
2023/08/21 07:16:03;;;;;;;12.23;5.50;;;;;;;;;;5083448;28;20085;-77
2023/08/21 07:18:32;;;;;;;9.63;4.80;;;;;;;;;;5070139;28;20067;-77
2023/08/21 07:20:58;;;;;;;10.30;5.00;;;;;;;;;;5080878;28;20036;-77
2023/08/21 07:23:24;;;;;;;10.93;4.80;;;;;;;;;;5069590;28;20044;-76
2023/08/21 07:25:50;;;;;;;9.10;4.93;;;;;;;;;;5089963;28;20044;-77
2023/08/21 07:28:16;;;;;;;9.13;4.53;;;;;;;;;;5071194;28;20052;-77
2023/08/21 07:30:42;;;;;;;11.02;4.72;;;;;;;;;;5089037;28;20040;-77
2023/08/21 07:33:09;;;;;;;10.43;4.15;;;;;;;;;;5069973;28;20557;-76
2023/08/21 07:35:35;;;;;;;9.38;4.03;;;;;;;;;;5088287;28;20040;-78
2023/08/21 07:38:02;;;;;;;9.52;3.53;;;;;;;;;;5065717;28;20094;-78
2023/08/21 07:40:28;;;;;;;8.30;2.70;;;;;;;;;;5086947;28;20510;-76
2023/08/21 07:42:54;;;;;;;7.10;2.78;;;;;;;;;;5089367;28;20040;-77
2023/08/21 07:45:20;;;;;;;9.95;3.30;;;;;;;;;;5076113;28;20055;-77
2023/08/21 07:47:46;;;;;;;8.35;3.05;;;;;;;;;;5076171;28;20054;-79
2023/08/21 07:50:14;;;;;;;7.47;2.75;;;;;;;;;;5091776;28;20059;-79
2023/08/21 07:52:40;;;;;;;7.55;2.60;;;;;;;;;;5091606;28;20044;-77
2023/08/21 07:55:08;;;;;;;8.55;2.88;;;;;;;;;;5086583;28;20055;-78
2023/08/21 07:57:34;;;;;;;7.28;2.90;;;;;;;;;;5074254;28;20135;-79
2023/08/21 08:00:00;;;;;;;8.23;2.80;;;;;;;;;;5075248;28;20122;-78
2023/08/21 08:02:26;;;;;;;10.00;2.70;;;;;;;;;;5092208;28;20040;-78
2023/08/21 08:04:52;;;;;;;6.47;2.67;;;;;;;;;;5073272;28;20044;-78
2023/08/21 08:07:18;;;;;;;10.38;3.20;;;;;;;;;;5091567;28;20166;-78
2023/08/21 08:09:44;;;;;;;9.27;2.67;;;;;;;;;;5090965;28;20135;-78
2023/08/21 08:12:11;;;;;;;8.57;3.13;;;;;;;;;;5088621;28;20052;-79
2023/08/21 08:14:38;;;;;;;8.85;2.95;;;;;;;;;;5093669;28;20039;-79
2023/08/21 08:17:04;;;;;;;9.63;2.67;;;;;;;;;;5074763;28;20052;-78
2023/08/21 08:19:30;;;;;;;7.50;2.50;;;;;;;;;;5092644;28;20127;-76
2023/08/21 08:21:56;;;;;;;8.45;2.88;;;;;;;;;;5091486;28;20081;-79
2023/08/21 08:24:22;;;;;;;8.40;2.83;;;;;;;;;;5092201;28;20048;-79
2023/08/21 08:26:48;;;;;;;10.18;2.80;;;;;;;;;;5073221;28;20047;-80
2023/08/21 08:29:14;;;;;;;7.95;2.78;;;;;;;;;;5090861;28;20055;-79
2023/08/21 08:31:40;;;;;;;8.52;3.22;;;;;;;;;;5072349;28;20044;-80
2023/08/21 08:34:06;;;;;;;7.13;2.80;;;;;;;;;;5091940;28;20131;-79
2023/08/21 08:36:32;;;;;;;5.18;2.55;;;;;;;;;;5074672;28;20109;-80
2023/08/21 08:38:59;;;;;;;7.72;2.78;;;;;;;;;;5093553;28;20044;-79
2023/08/21 08:41:41;;;;;;;7.43;2.40;;;;;;;;;;5092191;28;20102;-80
2023/08/21 08:44:08;;;;;;;7.23;2.87;;;;;;;;;;5065962;28;20052;-79
2023/08/21 08:46:35;;;;;;;6.97;2.95;;;;;;;;;;5067078;28;20312;-80
2023/08/21 08:49:02;;;;;;;7.80;2.75;;;;;;;;;;5094004;28;20051;-80
2023/08/21 08:51:30;;;;;;;8.63;2.78;;;;;;;;;;5090552;28;20044;-80
2023/08/21 08:53:58;;;;;;;6.70;2.95;;;;;;;;;;5089786;28;20525;-79
2023/08/21 08:56:25;;;;;;;7.00;2.60;;;;;;;;;;5093113;28;20394;-79
2023/08/21 08:58:51;;;;;;;9.10;2.67;;;;;;;;;;5092605;28;20040;-73
2023/08/21 09:01:17;;;;;;;7.15;2.78;;;;;;;;;;5066949;28;20433;-80
2023/08/21 09:03:45;;;;;;;8.57;2.60;;;;;;;;;;5089273;28;20450;-79
2023/08/21 09:06:11;;;;;;;7.70;2.85;;;;;;;;;;5090601;28;20127;-77
2023/08/21 09:08:37;;;;;;;7.97;2.92;;;;;;;;;;5095028;28;20143;-77
2023/08/21 09:11:03;;;;;;;6.28;2.92;;;;;;;;;;5089254;28;20059;-78
2023/08/21 09:13:31;;;;;;;6.28;2.60;;;;;;;;;;5071718;28;20100;-70
2023/08/21 09:15:57;;;;;;;5.45;3.03;;;;;;;;;;5091228;28;20032;-72
2023/08/21 09:18:23;;;;;;;9.70;3.20;;;;;;;;;;5069184;28;20054;-77
2023/08/21 09:20:49;;;;;;;8.32;3.38;;;;;;;;;;5085478;28;20052;-78
2023/08/21 09:23:16;;;;;;;8.38;2.90;;;;;;;;;;5074228;28;20067;-78
2023/08/21 09:25:44;;;;;;;10.43;3.17;;;;;;;;;;5073095;28;20376;-78
2023/08/21 09:28:10;;;;;;;7.97;3.22;;;;;;;;;;5089508;28;20114;-78
2023/08/21 09:30:53;;;;;;;6.85;2.80;;;;;;;;;;5073534;28;20052;-79
2023/08/21 09:33:23;;;;;;;10.18;3.30;;;;;;;;;;5074364;28;20051;-78
2023/08/21 09:35:49;;;;;;;10.93;3.40;;;;;;;;;;5073033;28;20510;-77
2023/08/21 09:38:15;;;;;;;9.02;3.33;;;;;;;;;;5074247;28;20042;-75
2023/08/21 09:40:42;;;;;;;9.98;4.15;;;;;;;;;;5089359;28;20047;-75
2023/08/21 09:43:11;;;;;;;8.45;4.40;;;;;;;;;;5088931;28;20123;-75
2023/08/21 09:45:38;;;;;;;12.77;6.13;;;;;;;;;;5086989;28;20070;-76
2023/08/21 09:48:05;;;;;;;12.82;6.63;;;;;;;;;;5070031;28;20461;-78
2023/08/21 09:50:31;;;;;;;15.95;8.18;;;;;;;;;;5092095;28;20260;-79
2023/08/21 09:52:58;;;;;;;19.63;8.10;;;;;;;;;;5072855;28;20055;-79
2023/08/21 09:55:31;;;;;;;13.07;7.43;;;;;;;;;;5070674;28;20086;-78
2023/08/21 09:57:59;;;;;;;15.05;8.68;;;;;;;;;;5092085;28;20036;-78
2023/08/21 10:00:27;;;;;;;15.20;7.47;;;;;;;;;;5073719;28;20131;-78
2023/08/21 10:02:54;;;;;;;12.10;7.18;;;;;;;;;;5090875;28;20093;-79
2023/08/21 10:05:20;;;;;;;10.48;7.38;;;;;;;;;;5090983;28;20040;-79
2023/08/21 10:07:50;;;;;;;14.52;8.75;;;;;;;;;;5091632;28;20055;-79
2023/08/21 10:10:16;;;;;;;15.88;8.02;;;;;;;;;;5070263;28;20511;-80
2023/08/21 10:12:43;;;;;;;12.68;8.27;;;;;;;;;;5100278;28;20435;-79
2023/08/21 10:15:09;;;;;;;17.00;9.52;;;;;;;;;;5090652;28;20047;-79
2023/08/21 10:17:36;;;;;;;17.17;9.30;;;;;;;;;;5072444;28;20180;-80
2023/08/21 10:20:06;;;;;;;17.00;9.25;;;;;;;;;;5089671;28;20039;-79
2023/08/21 10:22:48;;;;;;;16.15;9.32;;;;;;;;;;5073605;28;20048;-79
2023/08/21 10:25:16;;;;;;;18.45;10.35;;;;;;;;;;5090775;28;20348;-79
2023/08/21 10:27:42;;;;;;;19.35;10.45;;;;;;;;;;5090056;28;20132;-79
2023/08/21 10:30:16;;;;;;;16.10;9.82;;;;;;;;;;5070514;28;20068;-78
2023/08/21 10:32:49;;;;;;;15.63;9.57;;;;;;;;;;5064056;28;20395;-78
2023/08/21 10:35:16;;;;;;;17.60;10.00;;;;;;;;;;5071110;28;20048;-78
2023/08/21 10:38:01;;;;;;;19.67;9.85;;;;;;;;;;5068407;28;20480;-78
2023/08/21 10:40:28;;;;;;;15.05;9.93;;;;;;;;;;5091087;28;20115;-78
2023/08/21 10:42:54;;;;;;;15.60;8.77;;;;;;;;;;5091167;28;20109;-78
2023/08/21 10:45:20;;;;;;;15.05;8.20;;;;;;;;;;5090839;28;20044;-78
2023/08/21 10:47:48;;;;;;;13.13;7.60;;;;;;;;;;5091021;28;20383;-79
2023/08/21 10:50:14;;;;;;;16.00;8.38;;;;;;;;;;5061817;28;20073;-79
2023/08/21 10:52:47;;;;;;;13.50;6.95;;;;;;;;;;5088596;28;20483;-79
2023/08/21 10:55:13;;;;;;;10.60;6.68;;;;;;;;;;5085657;28;20048;-79
2023/08/21 10:57:43;;;;;;;15.65;5.68;;;;;;;;;;5089804;28;20040;-79
2023/08/21 11:00:13;;;;;;;11.40;5.40;;;;;;;;;;5068123;28;20044;-80
2023/08/21 11:02:40;;;;;;;11.63;5.13;;;;;;;;;;5069477;28;20101;-80
2023/08/21 11:05:07;;;;;;;10.10;4.40;;;;;;;;;;5067476;28;20381;-79
2023/08/21 11:07:37;;;;;;;13.38;4.63;;;;;;;;;;5061968;28;20522;-74
2023/08/21 11:10:05;;;;;;;9.82;4.30;;;;;;;;;;5088516;28;20468;-80
2023/08/21 11:12:31;;;;;;;8.68;3.50;;;;;;;;;;5086322;28;20044;-78
2023/08/21 11:14:57;;;;;;;7.38;3.63;;;;;;;;;;5087426;28;20044;-79
2023/08/21 11:17:23;;;;;;;9.15;3.50;;;;;;;;;;5098726;28;20052;-79
2023/08/21 11:19:50;;;;;;;8.32;3.38;;;;;;;;;;5076261;28;20136;-79
2023/08/21 11:22:16;;;;;;;7.43;3.42;;;;;;;;;;5092415;28;20047;-80
2023/08/21 11:24:42;;;;;;;6.75;3.53;;;;;;;;;;5087616;28;20036;-80
2023/08/21 11:27:09;;;;;;;9.75;3.20;;;;;;;;;;5071092;28;20048;-80
2023/08/21 11:29:42;;;;;;;9.57;3.45;;;;;;;;;;5094153;28;20081;-80
2023/08/21 11:32:08;;;;;;;11.13;3.17;;;;;;;;;;5077276;28;20475;-79
2023/08/21 11:34:34;;;;;;;8.05;2.88;;;;;;;;;;5075657;28;20101;-80
2023/08/21 11:37:00;;;;;;;4.95;2.55;;;;;;;;;;5095886;28;20043;-80
2023/08/21 11:39:30;;;;;;;6.22;2.45;;;;;;;;;;5094504;28;20151;-80
2023/08/21 11:41:57;;;;;;;6.00;2.50;;;;;;;;;;5088663;28;20386;-80
2023/08/21 11:44:23;;;;;;;7.32;2.83;;;;;;;;;;5077350;28;20050;-79
2023/08/21 11:46:52;;;;;;;5.97;2.47;;;;;;;;;;5075600;28;20036;-80
2023/08/21 11:49:18;;;;;;;5.90;2.75;;;;;;;;;;5057028;28;20131;-80
2023/08/21 11:51:45;;;;;;;5.10;2.58;;;;;;;;;;5065255;28;20459;-80
2023/08/21 11:54:11;;;;;;;4.22;2.20;;;;;;;;;;5087453;28;20407;-80
2023/08/21 11:56:39;;;;;;;7.85;2.60;;;;;;;;;;5092284;28;20063;-80
2023/08/21 11:59:05;;;;;;;7.32;2.42;;;;;;;;;;5094421;28;20407;-80
2023/08/21 12:01:34;;;;;;;7.00;2.35;;;;;;;;;;5069212;28;20048;-80
2023/08/21 12:04:00;;;;;;;3.88;2.92;;;;;;;;;;5098818;28;20096;-80
2023/08/21 12:06:28;;;;;;;8.05;2.50;;;;;;;;;;5077456;28;20079;-80
2023/08/21 12:08:55;;;;;;;5.43;2.47;;;;;;;;;;5075091;28;20055;-80
2023/08/21 12:11:21;;;;;;;5.65;2.88;;;;;;;;;;5093612;28;20123;-80
2023/08/21 12:13:47;;;;;;;5.20;2.53;;;;;;;;;;5094606;28;20137;-80
2023/08/21 12:16:13;;;;;;;10.50;2.95;;;;;;;;;;5091754;28;20079;-80
2023/08/21 12:18:39;;;;;;;6.35;2.60;;;;;;;;;;5088077;28;20044;-81
2023/08/21 12:21:07;;;;;;;7.20;3.10;;;;;;;;;;5093962;28;20043;-80
2023/08/21 12:23:33;;;;;;;9.35;3.20;;;;;;;;;;5075422;28;20170;-80
2023/08/21 12:26:00;;;;;;;7.22;3.80;;;;;;;;;;5094716;28;20506;-80
2023/08/21 12:28:26;;;;;;;8.90;3.30;;;;;;;;;;5093264;28;20037;-80
2023/08/21 12:30:52;;;;;;;10.23;4.20;;;;;;;;;;5093360;28;20089;-81
2023/08/21 12:33:21;;;;;;;8.88;3.88;;;;;;;;;;5073402;28;20041;-81
2023/08/21 12:35:47;;;;;;;8.98;4.07;;;;;;;;;;5092783;28;20051;-80
2023/08/21 12:38:13;;;;;;;8.82;3.40;;;;;;;;;;5075643;28;20101;-80
2023/08/21 12:40:40;;;;;;;10.55;4.15;;;;;;;;;;5076124;28;20075;-80
2023/08/21 12:43:06;;;;;;;8.65;4.20;;;;;;;;;;5095461;28;20086;-81
2023/08/21 12:45:32;;;;;;;10.25;4.20;;;;;;;;;;5076315;28;20052;-81
2023/08/21 12:47:58;;;;;;;8.40;3.80;;;;;;;;;;5074893;28;20187;-81
2023/08/21 12:50:24;;;;;;;7.20;3.05;;;;;;;;;;5072537;28;20055;-81
2023/08/21 12:52:50;;;;;;;9.88;3.70;;;;;;;;;;5057232;28;20049;-81
2023/08/21 12:55:16;;;;;;;6.45;3.10;;;;;;;;;;5073886;28;20048;-80
2023/08/21 12:57:42;;;;;;;7.18;3.17;;;;;;;;;;5083036;28;20066;-81
2023/08/21 13:00:08;;;;;;;7.72;2.92;;;;;;;;;;5075829;28;20495;-81
2023/08/21 13:02:34;;;;;;;4.00;2.92;;;;;;;;;;5075167;28;20048;-82
2023/08/21 13:05:00;;;;;;;6.70;3.05;;;;;;;;;;5084161;28;20048;-81
2023/08/21 13:07:26;;;;;;;4.95;2.85;;;;;;;;;;5088583;28;20063;-81
2023/08/21 13:09:52;;;;;;;6.28;3.33;;;;;;;;;;5054874;28;20056;-80
2023/08/21 13:12:18;;;;;;;8.95;3.13;;;;;;;;;;5076772;28;20047;-80
2023/08/21 13:14:46;;;;;;;5.35;2.90;;;;;;;;;;5093244;28;20364;-81
2023/08/21 13:17:12;;;;;;;6.38;3.55;;;;;;;;;;5093270;28;20096;-81
2023/08/21 13:19:38;;;;;;;5.07;2.80;;;;;;;;;;5087709;28;20126;-82
2023/08/21 13:22:04;;;;;;;8.55;3.55;;;;;;;;;;5090964;28;20081;-81
2023/08/21 13:24:30;;;;;;;5.00;3.20;;;;;;;;;;5061641;28;20051;-81
2023/08/21 13:26:56;;;;;;;9.27;3.60;;;;;;;;;;5057824;28;20055;-81
2023/08/21 13:29:23;;;;;;;9.82;3.90;;;;;;;;;;5075308;28;20123;-81
2023/08/21 13:31:49;;;;;;;5.47;3.03;;;;;;;;;;5096970;28;20043;-82
2023/08/21 13:34:15;;;;;;;9.20;3.35;;;;;;;;;;5094840;28;20043;-82
2023/08/21 13:36:41;;;;;;;5.78;3.35;;;;;;;;;;5094891;28;20047;-81
2023/08/21 13:39:08;;;;;;;5.53;3.40;;;;;;;;;;5077018;28;20052;-81
2023/08/21 13:41:34;;;;;;;7.22;3.10;;;;;;;;;;5088167;28;20454;-82
2023/08/21 13:44:00;;;;;;;4.80;3.05;;;;;;;;;;5090154;28;20051;-82
2023/08/21 13:46:26;;;;;;;4.28;2.50;;;;;;;;;;5091491;28;20048;-81
2023/08/21 13:48:52;;;;;;;5.18;3.03;;;;;;;;;;5074119;28;20051;-82
2023/08/21 13:51:18;;;;;;;6.35;3.00;;;;;;;;;;5076226;28;20048;-81
2023/08/21 13:53:45;;;;;;;5.70;2.92;;;;;;;;;;5091771;28;20490;-81
2023/08/21 13:56:11;;;;;;;7.45;3.20;;;;;;;;;;5092177;28;20063;-81
2023/08/21 13:58:37;;;;;;;4.90;3.35;;;;;;;;;;5077830;28;20484;-83
2023/08/21 14:01:03;;;;;;;9.20;3.42;;;;;;;;;;5071053;28;20430;-82
2023/08/21 14:03:29;;;;;;;7.43;3.00;;;;;;;;;;5093139;28;20105;-81
2023/08/21 14:05:55;;;;;;;4.65;2.70;;;;;;;;;;5092459;28;20043;-81
2023/08/21 14:08:21;;;;;;;6.53;3.00;;;;;;;;;;5091098;28;20139;-81
2023/08/21 14:10:47;;;;;;;6.78;3.17;;;;;;;;;;5073271;28;20075;-81
2023/08/21 14:13:13;;;;;;;8.07;3.17;;;;;;;;;;5091535;28;20546;-82
2023/08/21 14:15:39;;;;;;;10.27;3.03;;;;;;;;;;5091426;28;20093;-80
2023/08/21 14:18:05;;;;;;;4.65;3.10;;;;;;;;;;5084494;28;20097;-80
2023/08/21 14:20:31;;;;;;;6.93;3.00;;;;;;;;;;5085120;28;20059;-79
2023/08/21 14:22:57;;;;;;;4.95;2.70;;;;;;;;;;5091293;28;20036;-79
2023/08/21 14:25:24;;;;;;;5.90;2.90;;;;;;;;;;5092293;28;20047;-80
2023/08/21 14:27:50;;;;;;;5.53;3.13;;;;;;;;;;5090136;28;20044;-80
2023/08/21 14:30:16;;;;;;;6.97;3.03;;;;;;;;;;5091555;28;20052;-80
2023/08/21 14:32:42;;;;;;;5.50;2.85;;;;;;;;;;5092521;28;20040;-81
2023/08/21 14:35:08;;;;;;;6.40;2.80;;;;;;;;;;5086421;28;20055;-80